Terminal Aerodrome Forecast
Issued by NWS

Home | Current Version | Previous Version | Text Only | Print | Product List | Glossary On
Versions: 1 2 3 4 5 6 7 8 9 10 11 12 13 14
000
FTUS44 KSJT 202300 RRA
TAFBBD
TAF
KBBD 202342Z 2100/2124 17009KT P6SM SCT250
     FM210700 VRB03KT P6SM OVC010
     FM211000 VRB03KT 5SM BR OVC006
     FM211500 18007KT P6SM BKN018
     FM212100 18010KT P6SM BKN035=

USA.gov is the U.S. government's official web portal to all federal, state and local government web resources and services.